createdAt,value
2022-10-31T00:01:28.464Z,100.00
2022-10-31T00:06:30.296Z,99.98
2022-10-31T00:11:32.132Z,100.00
2022-10-31T00:16:34.999Z,100.00
2022-10-31T00:21:36.754Z,100.00
2022-10-31T00:26:38.671Z,100.00
2022-10-31T00:31:40.454Z,100.00
2022-10-31T00:36:42.274Z,100.00
2022-10-31T00:41:48.639Z,100.00
2022-10-31T00:46:50.434Z,100.00
2022-10-31T00:51:56.749Z,100.00
2022-10-31T00:56:58.711Z,100.00
2022-10-31T01:02:00.704Z,100.00
2022-10-31T01:07:02.657Z,100.00
2022-10-31T01:12:04.946Z,100.00
2022-10-31T01:17:06.776Z,100.00
2022-10-31T01:22:08.631Z,100.00
2022-10-31T01:27:10.801Z,100.00
2022-10-31T01:32:12.537Z,100.00
2022-10-31T01:37:14.360Z,100.00
2022-10-31T01:42:23.020Z,100.00
2022-10-31T01:47:35.070Z,100.00
2022-10-31T01:52:41.619Z,100.00
2022-10-31T01:57:47.719Z,100.00
2022-10-31T02:02:52.661Z,100.00
2022-10-31T02:08:00.994Z,100.00
2022-10-31T02:13:07.265Z,100.00
2022-10-31T02:18:11.666Z,100.00
2022-10-31T02:23:34.980Z,100.00
2022-10-31T02:29:24.461Z,100.00
2022-10-31T02:34:46.804Z,100.00
2022-10-31T02:39:54.630Z,100.00
2022-10-31T02:45:13.115Z,100.00
2022-10-31T02:50:24.704Z,100.00
2022-10-31T02:55:26.425Z,100.00
2022-10-31T03:00:40.320Z,100.00
2022-10-31T03:05:50.192Z,100.00
2022-10-31T03:10:58.339Z,100.00
2022-10-31T03:16:17.118Z,100.00
2022-10-31T03:21:29.359Z,100.00
2022-10-31T03:26:31.999Z,100.00
2022-10-31T03:31:40.757Z,100.00
2022-10-31T03:36:45.402Z,100.00
2022-10-31T03:41:55.831Z,100.00
2022-10-31T03:46:58.298Z,100.00
2022-10-31T03:52:13.363Z,100.00
2022-10-31T03:57:24.282Z,100.00
2022-10-31T04:02:31.113Z,100.00
2022-10-31T04:07:40.032Z,100.00
2022-10-31T04:12:50.564Z,100.00
2022-10-31T04:18:00.404Z,100.00
2022-10-31T04:23:04.049Z,100.00
2022-10-31T04:28:06.788Z,100.00
2022-10-31T04:33:09.465Z,100.00
2022-10-31T04:38:11.697Z,100.00
2022-10-31T04:43:14.256Z,100.00
2022-10-31T04:48:18.185Z,100.00
2022-10-31T04:53:20.324Z,100.00
2022-10-31T04:58:48.023Z,100.00
2022-10-31T05:03:49.909Z,100.00
2022-10-31T05:08:52.113Z,100.00
2022-10-31T05:13:55.051Z,100.00
2022-10-31T05:19:16.789Z,100.00
2022-10-31T05:24:37.460Z,100.00
2022-10-31T05:29:39.327Z,100.00
2022-10-31T05:34:41.241Z,100.00
2022-10-31T05:40:14.992Z,100.00
2022-10-31T05:45:19.538Z,100.00
2022-10-31T05:50:30.768Z,100.00
2022-10-31T05:55:42.004Z,100.00
2022-10-31T06:00:47.025Z,100.00
2022-10-31T06:05:52.286Z,100.00
2022-10-31T06:10:57.723Z,100.00
2022-10-31T06:16:19.469Z,100.00
2022-10-31T06:21:21.680Z,100.00
2022-10-31T06:26:24.468Z,100.00
2022-10-31T06:31:26.383Z,100.00
2022-10-31T06:41:35.116Z,100.00
2022-10-31T06:46:37.985Z,100.00
2022-10-31T06:51:51.197Z,100.00
2022-10-31T06:56:53.046Z,100.00
2022-10-31T07:01:54.917Z,100.00
2022-10-31T07:06:57.580Z,100.00
2022-10-31T07:11:59.465Z,100.00
2022-10-31T07:17:01.440Z,100.00
2022-10-31T07:22:12.673Z,100.00
2022-10-31T07:27:15.157Z,100.00
2022-10-31T07:32:18.259Z,100.00
2022-10-31T07:37:28.738Z,100.00
2022-10-31T07:42:39.203Z,100.00
2022-10-31T07:47:53.223Z,100.00
2022-10-31T07:53:15.141Z,100.00
2022-10-31T07:58:19.552Z,100.00
2022-10-31T08:03:21.578Z,100.00
2022-10-31T08:08:42.393Z,100.00
2022-10-31T08:13:44.468Z,100.00
2022-10-31T08:18:49.164Z,100.00
2022-10-31T08:23:51.217Z,100.00
2022-10-31T08:28:55.961Z,100.00
2022-10-31T08:33:58.863Z,100.00
2022-10-31T08:39:38.926Z,100.00
2022-10-31T08:44:40.954Z,100.00
2022-10-31T08:49:43.154Z,100.00
2022-10-31T08:54:45.176Z,100.00
2022-10-31T09:00:06.584Z,100.00
2022-10-31T09:05:41.429Z,100.00
2022-10-31T09:10:46.406Z,100.00
2022-10-31T09:15:50.682Z,100.00
2022-10-31T09:21:01.959Z,100.00
2022-10-31T09:26:05.647Z,100.00
2022-10-31T09:31:17.499Z,100.00
2022-10-31T09:36:32.093Z,100.00
2022-10-31T09:41:43.078Z,99.99
2022-10-31T09:47:01.940Z,99.66
2022-10-31T09:52:20.047Z,99.33
2022-10-31T09:57:30.808Z,98.41
2022-10-31T10:02:38.927Z,97.28
2022-10-31T10:08:00.851Z,96.38
2022-10-31T10:13:36.934Z,95.40
2022-10-31T10:18:53.395Z,95.54
2022-10-31T10:24:34.341Z,95.19
2022-10-31T10:29:48.600Z,94.88
2022-10-31T10:35:00.123Z,93.29
2022-10-31T10:40:12.684Z,92.55
2022-10-31T10:45:36.452Z,92.09
2022-10-31T10:50:50.622Z,91.89
2022-10-31T10:56:01.555Z,90.76
2022-10-31T11:01:12.996Z,90.24
2022-10-31T11:06:23.160Z,90.19
2022-10-31T11:11:29.258Z,89.79
2022-10-31T11:16:38.106Z,89.31
2022-10-31T11:21:43.006Z,88.67
2022-10-31T11:26:47.674Z,87.97
2022-10-31T11:31:53.539Z,87.53
2022-10-31T11:37:00.303Z,86.29
2022-10-31T11:42:08.781Z,85.77
2022-10-31T11:47:15.813Z,85.23
2022-10-31T11:52:19.907Z,84.82
2022-10-31T11:57:27.581Z,83.85
2022-10-31T12:02:29.471Z,83.28
2022-10-31T12:07:31.705Z,82.99
2022-10-31T12:12:58.613Z,83.04
2022-10-31T12:18:12.595Z,82.66
2022-10-31T12:23:34.842Z,82.06
2022-10-31T12:28:55.259Z,81.31
2022-10-31T12:34:18.011Z,80.58
2022-10-31T12:39:35.260Z,80.02
2022-10-31T12:44:49.330Z,79.90
2022-10-31T12:49:51.083Z,79.71
2022-10-31T12:55:05.740Z,79.12
2022-10-31T13:00:17.083Z,78.50
2022-10-31T13:05:31.368Z,77.94
2022-10-31T13:10:44.518Z,77.68
2022-10-31T13:15:53.055Z,77.06
2022-10-31T13:20:56.865Z,76.75
2022-10-31T13:26:02.860Z,76.86
2022-10-31T13:31:04.889Z,76.69
2022-10-31T13:36:16.034Z,76.55
2022-10-31T13:41:40.177Z,76.33
2022-10-31T13:51:53.608Z,76.11
2022-10-31T13:56:55.433Z,75.96
2022-10-31T14:02:01.970Z,75.84
2022-10-31T14:07:19.349Z,75.98
2022-10-31T14:12:44.894Z,76.19
2022-10-31T14:17:53.810Z,75.79
2022-10-31T14:22:55.688Z,75.67
2022-10-31T14:27:58.813Z,75.73
2022-10-31T14:33:20.914Z,76.14
2022-10-31T14:38:29.165Z,76.26
2022-10-31T14:44:05.015Z,76.60
2022-10-31T14:49:12.919Z,76.68
2022-10-31T14:54:46.901Z,77.23
2022-10-31T15:00:09.812Z,77.65
2022-10-31T15:05:14.346Z,78.01
2022-10-31T15:10:27.683Z,78.41
2022-10-31T15:15:29.522Z,78.72
2022-10-31T15:20:44.013Z,79.12
2022-10-31T15:25:47.043Z,79.50
2022-10-31T15:31:01.051Z,79.76
2022-10-31T15:36:03.560Z,80.20
2022-10-31T15:41:21.018Z,80.54
2022-10-31T15:46:23.054Z,80.97
2022-10-31T15:51:33.417Z,81.51
2022-10-31T15:56:35.342Z,81.85
2022-10-31T16:01:37.256Z,82.07
2022-10-31T16:06:39.678Z,82.33
2022-10-31T16:11:42.369Z,82.85
2022-10-31T16:16:52.962Z,83.14
2022-10-31T16:22:13.285Z,83.61
2022-10-31T16:27:31.001Z,83.93
2022-10-31T16:32:37.443Z,84.30
2022-10-31T16:37:42.558Z,84.71
2022-10-31T16:42:46.003Z,85.01
2022-10-31T16:47:49.549Z,85.38
2022-10-31T16:58:24.215Z,86.13
2022-10-31T17:03:26.508Z,86.48
2022-10-31T17:08:28.346Z,86.84
2022-10-31T17:13:32.618Z,87.17
2022-10-31T17:18:34.432Z,87.44
2022-10-31T17:23:38.314Z,87.72
2022-10-31T17:28:40.268Z,88.08
2022-10-31T17:33:43.384Z,88.32
2022-10-31T17:38:45.170Z,88.58
2022-10-31T17:43:46.943Z,88.91
2022-10-31T17:48:48.780Z,89.17
2022-10-31T17:53:50.572Z,89.40
2022-10-31T17:58:52.467Z,89.80
2022-10-31T18:03:54.273Z,90.05
2022-10-31T18:08:58.210Z,90.21
2022-10-31T18:14:00.876Z,90.36
2022-10-31T18:19:05.475Z,90.74
2022-10-31T18:24:07.722Z,90.76
2022-10-31T18:29:11.910Z,91.12
2022-10-31T18:34:13.897Z,91.26
2022-10-31T18:39:15.966Z,91.46
2022-10-31T18:44:17.800Z,91.75
2022-10-31T18:49:22.819Z,91.81
2022-10-31T18:54:24.592Z,92.11
2022-10-31T18:59:26.432Z,92.28
2022-10-31T19:04:28.425Z,92.72
2022-10-31T19:09:31.872Z,92.75
2022-10-31T19:14:33.629Z,93.07
2022-10-31T19:19:35.739Z,93.06
2022-10-31T19:24:37.651Z,93.32
2022-10-31T19:29:42.184Z,92.99
2022-10-31T19:34:44.985Z,93.46
2022-10-31T19:39:46.879Z,93.62
2022-10-31T19:44:48.686Z,93.83
2022-10-31T19:49:50.901Z,94.03
2022-10-31T19:54:52.743Z,94.19
2022-10-31T19:59:54.574Z,94.57
2022-10-31T20:04:56.871Z,94.87
2022-10-31T20:09:58.612Z,95.02
2022-10-31T20:15:00.392Z,95.08
2022-10-31T20:20:07.230Z,95.16
2022-10-31T20:25:09.219Z,95.40
2022-10-31T20:30:11.927Z,95.34
2022-10-31T20:35:13.671Z,95.43
2022-10-31T20:40:15.547Z,95.61
2022-10-31T20:45:17.468Z,95.59
2022-10-31T20:50:19.330Z,95.88
2022-10-31T20:55:21.425Z,95.93
2022-10-31T21:00:23.246Z,96.24
2022-10-31T21:05:25.034Z,96.36
2022-10-31T21:10:26.765Z,96.52
2022-10-31T21:15:28.539Z,96.82
2022-10-31T21:20:30.302Z,96.90
2022-10-31T21:25:32.195Z,97.04
2022-10-31T21:30:34.952Z,97.35
2022-10-31T21:35:37.047Z,97.44
2022-10-31T21:40:38.843Z,97.40
2022-10-31T21:45:40.753Z,97.62
2022-10-31T21:50:42.551Z,97.83
2022-10-31T21:55:44.344Z,97.78
2022-10-31T22:00:46.215Z,98.17
2022-10-31T22:05:48.011Z,98.25
2022-10-31T22:10:49.829Z,98.48
2022-10-31T22:15:53.899Z,98.60
2022-10-31T22:21:02.001Z,98.70
2022-10-31T22:26:14.483Z,98.77
2022-10-31T22:31:18.511Z,98.83
2022-10-31T22:36:25.761Z,99.06
2022-10-31T22:41:33.202Z,99.12
2022-10-31T22:46:37.981Z,99.18
2022-10-31T22:51:41.106Z,99.18
2022-10-31T22:56:43.902Z,99.39
2022-10-31T23:01:46.216Z,99.70
2022-10-31T23:06:49.312Z,99.69
2022-10-31T23:11:51.068Z,99.63
2022-10-31T23:16:56.057Z,99.58
2022-10-31T23:22:04.225Z,99.71
2022-10-31T23:27:12.527Z,99.75
2022-10-31T23:32:27.150Z,100.00
2022-10-31T23:37:32.743Z,100.00
2022-10-31T23:42:34.801Z,100.00
2022-10-31T23:47:40.879Z,100.00
2022-10-31T23:52:45.153Z,100.00
2022-10-31T23:57:46.950Z,100.00
